Daikoku — JD3247 — position and weather

sailwx.info

Track history (hours):
 
Tides and Currents Weather Stations Pressure Air Temp Water Temp Dewpoint Dewpoint Depression Visibility Wind Speed Wind Dir Waves Ship Positions

Daikoku

Last reported at 2016-Jun-28 12:31 UTC. Time now 2016-Jun-28 13:22 UTC.
Position N 35°23' E 139°44'.

Length 95 m; draft 3.3 m.

Type: Cargo ship. MMSI: 431003009.

Date/timePositionNaut miles runAvg speedWind from/ knotsBaromVisibWave heightAir tempDewpointWater temp
2016-Jun-28 12:31N 35°23' E 139°44'0 0.0
2016-Jun-28 11:31N 35°23' E 139°44'0 0.0
2016-Jun-28 10:31N 35°23' E 139°44'0 0.0
2016-Jun-28 09:31N 35°23' E 139°44'0 0.0
2016-Jun-28 08:31N 35°23' E 139°44'0 0.0
2016-Jun-28 07:31N 35°23' E 139°44'3 2.6
2016-Jun-28 06:33N 35°24' E 139°41'0 0.1
2016-Jun-28 04:33N 35°24' E 139°41'2 1.6
2016-Jun-28 03:33N 35°23' E 139°42'2 2.1
2016-Jun-28 02:33N 35°22' E 139°44'0 0.0
2016-Jun-28 01:33N 35°22' E 139°44'0 0.0
2016-Jun-28 00:33N 35°22' E 139°44'0 0.0
2016-Jun-27 23:33N 35°22' E 139°44'0 0.0
2016-Jun-27 22:33N 35°22' E 139°44'0 0.0
2016-Jun-27 21:33N 35°22' E 139°44'0 0.0
2016-Jun-27 20:33N 35°22' E 139°44'0 0.0
2016-Jun-27 19:33N 35°22' E 139°44'0 0.1
2016-Jun-27 18:33N 35°22' E 139°44'1 0.8
2016-Jun-27 17:33N 35°21' E 139°43'1211.8
2016-Jun-27 16:33N 35°10' E 139°46'2411.8
2016-Jun-27 14:32N 34°53' E 139°25'  
2016-Jun-25 03:33N 34°24' E 135°03'1211.8
2016-Jun-25 02:33N 34°32' E 135°13'1010.0
2016-Jun-25 01:33N 34°41' E 135°17'0 0.1
2016-Jun-25 00:29N 34°41' E 135°17'0 0.0
2016-Jun-24 23:33N 34°41' E 135°17'3 3.2
2016-Jun-24 22:29N 34°41' E 135°13'0 0.0
2016-Jun-24 21:23N 34°41' E 135°13'0 0.0
2016-Jun-24 20:29N 34°41' E 135°13'0 0.0
2016-Jun-24 19:29N 34°41' E 135°13'0 0.0
2016-Jun-24 18:29N 34°41' E 135°13'0 0.0
2016-Jun-24 17:29N 34°41' E 135°13'0 0.0
2016-Jun-24 16:29N 34°41' E 135°13'0 0.0
2016-Jun-24 15:23N 34°41' E 135°13'0 0.0
2016-Jun-24 14:29N 34°41' E 135°13'0 0.0
2016-Jun-24 13:11N 34°41' E 135°13'0 0.0
2016-Jun-24 12:23N 34°41' E 135°13'0 0.0
2016-Jun-24 11:29N 34°41' E 135°13'0 0.0
2016-Jun-24 10:29N 34°41' E 135°13'0 0.0
2016-Jun-24 09:23N 34°41' E 135°13'0 0.0
2016-Jun-24 08:23N 34°41' E 135°13'0 0.0
2016-Jun-24 07:29N 34°41' E 135°13'0 0.0
2016-Jun-24 04:29N 34°41' E 135°13'0 0.0
2016-Jun-24 03:29N 34°41' E 135°13'0 0.0
2016-Jun-24 02:23N 34°41' E 135°13'0 0.0
2016-Jun-24 01:17N 34°41' E 135°13'0 0.0
2016-Jun-24 00:17N 34°41' E 135°13'0 0.0
2016-Jun-23 23:29N 34°41' E 135°13'0 0.0
2016-Jun-23 22:29N 34°41' E 135°13'0 0.0
2016-Jun-23 21:11N 34°41' E 135°13'0 0.0
2016-Jun-23 20:08N 34°41' E 135°13'3 5.0
2016-Jun-23 19:34N 34°39' E 135°16'3 2.1
2016-Jun-23 18:15N 34°37' E 135°15'0 0.0
2016-Jun-23 17:33N 34°37' E 135°15'0 0.0
2016-Jun-23 16:33N 34°37' E 135°15'0 0.1
2016-Jun-23 15:31N 34°37' E 135°15'1010.5
2016-Jun-23 14:33N 34°28' E 135°09'1212.1
2016-Jun-23 13:33N 34°19' E 134°60'1312.6
2016-Jun-23 12:33N 34°06' E 134°60'243 8.6
2016-Jun-22 08:28N 35°09' E 139°45'1011.3
2016-Jun-22 07:33N 35°19' E 139°43'8 7.5
2016-Jun-22 06:32N 35°26' E 139°41'0 0.0
2016-Jun-22 05:31N 35°26' E 139°41'0 0.4
2016-Jun-22 04:34N 35°27' E 139°41'4 3.7
2016-Jun-22 03:32N 35°24' E 139°45'0 0.1
2016-Jun-22 02:32N 35°24' E 139°45'0 0.0
2016-Jun-22 01:32N 35°24' E 139°45'0 0.0
2016-Jun-22 00:32N 35°24' E 139°45'0 0.0
2016-Jun-21 23:32N 35°24' E 139°45'0 0.0
2016-Jun-21 22:32N 35°24' E 139°45'0 0.0
2016-Jun-21 21:29N 35°24' E 139°45'0 0.0
2016-Jun-21 20:32N 35°24' E 139°45'0 0.1
2016-Jun-21 19:32N 35°24' E 139°45'0 0.0
2016-Jun-21 18:32N 35°24' E 139°45'0 0.0
2016-Jun-21 17:32N 35°24' E 139°45'0 0.0
2016-Jun-21 16:32N 35°24' E 139°45'0 0.0
2016-Jun-21 15:29N 35°24' E 139°45'0 0.0
2016-Jun-21 14:32N 35°24' E 139°45'0 0.1
2016-Jun-21 13:29N 35°24' E 139°45'0 0.0
2016-Jun-21 12:29N 35°24' E 139°45'0 0.0
2016-Jun-21 11:31N 35°24' E 139°45'0 0.0
2016-Jun-21 10:29N 35°24' E 139°45'0 0.0
2016-Jun-21 09:31N 35°24' E 139°45'0 0.0
2016-Jun-21 08:32N 35°24' E 139°45'0 0.1
2016-Jun-21 07:31N 35°24' E 139°45'3 3.2
2016-Jun-21 06:33N 35°24' E 139°41'0 0.0
2016-Jun-21 04:27N 35°24' E 139°41'2 1.9
2016-Jun-21 03:34N 35°23' E 139°42'1 1.4
2016-Jun-21 02:33N 35°22' E 139°44'0 0.1
2016-Jun-21 01:33N 35°22' E 139°43'0 0.0
2016-Jun-21 00:09N 35°22' E 139°43'0 0.0
2016-Jun-20 23:21N 35°22' E 139°43'0 0.0
2016-Jun-20 22:33N 35°22' E 139°43'0 0.0
2016-Jun-20 21:33N 35°22' E 139°43'0 0.0
2016-Jun-20 20:18N 35°22' E 139°43'0 0.0
2016-Jun-20 19:24N 35°22' E 139°43'0 0.1
2016-Jun-20 18:33N 35°22' E 139°44'0 0.0
2016-Jun-20 17:33N 35°22' E 139°44'1211.5
2016-Jun-20 16:33N 35°11' E 139°46'1211.4
2016-Jun-20 15:32N 35°01' E 139°39'1211.8
2016-Jun-20 14:29N 34°53' E 139°27'  
Track history (hours):
 
Tides and Currents Weather Stations Pressure Air Temp Water Temp Dewpoint Dewpoint Depression Visibility Wind Speed Wind Dir Waves Ship Positions

Daikoku

Last reported at 2016-Jun-28 12:31 UTC. Time now 2016-Jun-28 13:22 UTC.
Position N 35°23' E 139°44'.

Length 95 m; draft 3.3 m.

Type: Cargo ship. MMSI: 431003009.

Date/timePositionNaut miles runAvg speedWind from/ knotsBaromVisibWave heightAir tempDewpointWater temp
2016-Jun-28 12:31N 35°23' E 139°44'0 0.0
2016-Jun-28 11:31N 35°23' E 139°44'0 0.0
2016-Jun-28 10:31N 35°23' E 139°44'0 0.0
2016-Jun-28 09:31N 35°23' E 139°44'0 0.0
2016-Jun-28 08:31N 35°23' E 139°44'0 0.0
2016-Jun-28 07:31N 35°23' E 139°44'3 2.6
2016-Jun-28 06:33N 35°24' E 139°41'0 0.1
2016-Jun-28 04:33N 35°24' E 139°41'2 1.6
2016-Jun-28 03:33N 35°23' E 139°42'2 2.1
2016-Jun-28 02:33N 35°22' E 139°44'0 0.0
2016-Jun-28 01:33N 35°22' E 139°44'0 0.0
2016-Jun-28 00:33N 35°22' E 139°44'0 0.0
2016-Jun-27 23:33N 35°22' E 139°44'0 0.0
2016-Jun-27 22:33N 35°22' E 139°44'0 0.0
2016-Jun-27 21:33N 35°22' E 139°44'0 0.0
2016-Jun-27 20:33N 35°22' E 139°44'0 0.0
2016-Jun-27 19:33N 35°22' E 139°44'0 0.1
2016-Jun-27 18:33N 35°22' E 139°44'1 0.8
2016-Jun-27 17:33N 35°21' E 139°43'1211.8
2016-Jun-27 16:33N 35°10' E 139°46'2411.8
2016-Jun-27 14:32N 34°53' E 139°25'  
2016-Jun-25 03:33N 34°24' E 135°03'1211.8
2016-Jun-25 02:33N 34°32' E 135°13'1010.0
2016-Jun-25 01:33N 34°41' E 135°17'0 0.1
2016-Jun-25 00:29N 34°41' E 135°17'0 0.0
2016-Jun-24 23:33N 34°41' E 135°17'3 3.2
2016-Jun-24 22:29N 34°41' E 135°13'0 0.0
2016-Jun-24 21:23N 34°41' E 135°13'0 0.0
2016-Jun-24 20:29N 34°41' E 135°13'0 0.0
2016-Jun-24 19:29N 34°41' E 135°13'0 0.0
2016-Jun-24 18:29N 34°41' E 135°13'0 0.0
2016-Jun-24 17:29N 34°41' E 135°13'0 0.0
2016-Jun-24 16:29N 34°41' E 135°13'0 0.0
2016-Jun-24 15:23N 34°41' E 135°13'0 0.0
2016-Jun-24 14:29N 34°41' E 135°13'0 0.0
2016-Jun-24 13:11N 34°41' E 135°13'0 0.0
2016-Jun-24 12:23N 34°41' E 135°13'0 0.0
2016-Jun-24 11:29N 34°41' E 135°13'0 0.0
2016-Jun-24 10:29N 34°41' E 135°13'0 0.0
2016-Jun-24 09:23N 34°41' E 135°13'0 0.0
2016-Jun-24 08:23N 34°41' E 135°13'0 0.0
2016-Jun-24 07:29N 34°41' E 135°13'0 0.0
2016-Jun-24 04:29N 34°41' E 135°13'0 0.0
2016-Jun-24 03:29N 34°41' E 135°13'0 0.0
2016-Jun-24 02:23N 34°41' E 135°13'0 0.0
2016-Jun-24 01:17N 34°41' E 135°13'0 0.0
2016-Jun-24 00:17N 34°41' E 135°13'0 0.0
2016-Jun-23 23:29N 34°41' E 135°13'0 0.0
2016-Jun-23 22:29N 34°41' E 135°13'0 0.0
2016-Jun-23 21:11N 34°41' E 135°13'0 0.0
2016-Jun-23 20:08N 34°41' E 135°13'3 5.0
2016-Jun-23 19:34N 34°39' E 135°16'3 2.1
2016-Jun-23 18:15N 34°37' E 135°15'0 0.0
2016-Jun-23 17:33N 34°37' E 135°15'0 0.0
2016-Jun-23 16:33N 34°37' E 135°15'0 0.1
2016-Jun-23 15:31N 34°37' E 135°15'1010.5
2016-Jun-23 14:33N 34°28' E 135°09'1212.1
2016-Jun-23 13:33N 34°19' E 134°60'1312.6
2016-Jun-23 12:33N 34°06' E 134°60'243 8.6
2016-Jun-22 08:28N 35°09' E 139°45'1011.3
2016-Jun-22 07:33N 35°19' E 139°43'8 7.5
2016-Jun-22 06:32N 35°26' E 139°41'0 0.0
2016-Jun-22 05:31N 35°26' E 139°41'0 0.4
2016-Jun-22 04:34N 35°27' E 139°41'4 3.7
2016-Jun-22 03:32N 35°24' E 139°45'0 0.1
2016-Jun-22 02:32N 35°24' E 139°45'0 0.0
2016-Jun-22 01:32N 35°24' E 139°45'0 0.0
2016-Jun-22 00:32N 35°24' E 139°45'0 0.0
2016-Jun-21 23:32N 35°24' E 139°45'0 0.0
2016-Jun-21 22:32N 35°24' E 139°45'0 0.0
2016-Jun-21 21:29N 35°24' E 139°45'0 0.0
2016-Jun-21 20:32N 35°24' E 139°45'0 0.1
2016-Jun-21 19:32N 35°24' E 139°45'0 0.0
2016-Jun-21 18:32N 35°24' E 139°45'0 0.0
2016-Jun-21 17:32N 35°24' E 139°45'0 0.0
2016-Jun-21 16:32N 35°24' E 139°45'0 0.0
2016-Jun-21 15:29N 35°24' E 139°45'0 0.0
2016-Jun-21 14:32N 35°24' E 139°45'0 0.1
2016-Jun-21 13:29N 35°24' E 139°45'0 0.0
2016-Jun-21 12:29N 35°24' E 139°45'0 0.0
2016-Jun-21 11:31N 35°24' E 139°45'0 0.0
2016-Jun-21 10:29N 35°24' E 139°45'0 0.0
2016-Jun-21 09:31N 35°24' E 139°45'0 0.0
2016-Jun-21 08:32N 35°24' E 139°45'0 0.1
2016-Jun-21 07:31N 35°24' E 139°45'3 3.2
2016-Jun-21 06:33N 35°24' E 139°41'0 0.0
2016-Jun-21 04:27N 35°24' E 139°41'2 1.9
2016-Jun-21 03:34N 35°23' E 139°42'1 1.4
2016-Jun-21 02:33N 35°22' E 139°44'0 0.1
2016-Jun-21 01:33N 35°22' E 139°43'0 0.0
2016-Jun-21 00:09N 35°22' E 139°43'0 0.0
2016-Jun-20 23:21N 35°22' E 139°43'0 0.0
2016-Jun-20 22:33N 35°22' E 139°43'0 0.0
2016-Jun-20 21:33N 35°22' E 139°43'0 0.0
2016-Jun-20 20:18N 35°22' E 139°43'0 0.0
2016-Jun-20 19:24N 35°22' E 139°43'0 0.1
2016-Jun-20 18:33N 35°22' E 139°44'0 0.0
2016-Jun-20 17:33N 35°22' E 139°44'1211.5
2016-Jun-20 16:33N 35°11' E 139°46'1211.4
2016-Jun-20 15:32N 35°01' E 139°39'1211.8
2016-Jun-20 14:29N 34°53' E 139°27'  

Dump ship's entire track history